Delta Ios — SVAK9 — position and weather

sailwx.info

Track history (hours):
 
Tides and Currents Weather Stations Pressure Air Temp Water Temp Dewpoint Dewpoint Depression Visibility Wind Speed Wind Dir Waves Ship Positions

Delta Ios

Last reported at 2014-Oct-24 02:14 UTC. Time now 2014-Oct-25 13:27 UTC.
Position N 36°06' W 006°16'.

Length 276 m; draft 9 m.

Type: Tanker. MMSI: 240821000.

Date/timePositionNaut miles runAvg speedWind from/ knotsBaromVisibWave heightAir tempDewpointWater temp
2014-Oct-24 02:14N 36°06' W 006°16'  
2014-Oct-21 09:26N 36°06' W 006°16'  
2014-Oct-19 00:23N 36°06' W 006°16'0 0.0
2014-Oct-18 21:32N 36°06' W 006°16'0 0.0
2014-Oct-18 19:14N 36°06' W 006°16'29 1.1
2014-Oct-17 15:31N 35°58' W 005°41'9 9.4
2014-Oct-17 14:32N 35°60' W 005°30'7 7.3
2014-Oct-17 13:33N 36°04' W 005°22'3 2.5
2014-Oct-17 12:29N 36°06' W 005°24'0 0.0
2014-Oct-17 11:32N 36°06' W 005°24'0 0.0
2014-Oct-17 10:23N 36°06' W 005°24'0 0.0
2014-Oct-17 09:32N 36°06' W 005°24'0 0.1
2014-Oct-17 08:29N 36°06' W 005°24'0 0.2
2014-Oct-17 07:32N 36°06' W 005°24'0 0.0
2014-Oct-17 06:32N 36°06' W 005°24'0 0.0
2014-Oct-17 05:32N 36°06' W 005°24'0 0.2
2014-Oct-17 04:32N 36°06' W 005°24'0 0.2
2014-Oct-17 03:29N 36°06' W 005°24'0 0.1
2014-Oct-17 02:29N 36°06' W 005°24'0 0.0
2014-Oct-17 01:32N 36°06' W 005°24'0 0.0
2014-Oct-17 00:29N 36°06' W 005°24'0 0.0
2014-Oct-16 23:32N 36°06' W 005°24'0 0.1
2014-Oct-16 22:32N 36°06' W 005°24'0 0.0
2014-Oct-16 21:32N 36°06' W 005°24'0 0.1
2014-Oct-16 20:32N 36°06' W 005°24'0 0.0
2014-Oct-16 19:29N 36°06' W 005°24'0 0.2
2014-Oct-16 18:32N 36°06' W 005°24'0 0.2
2014-Oct-16 17:32N 36°06' W 005°24'0 0.1
2014-Oct-16 16:32N 36°06' W 005°24'0 0.4
2014-Oct-16 15:33N 36°06' W 005°24'5 4.8
2014-Oct-16 14:33N 36°04' W 005°19'4 4.4
2014-Oct-16 13:33N 36°00' W 005°22'9 9.2
2014-Oct-16 12:33N 35°57' W 005°32'  
Track history (hours):
 
Tides and Currents Weather Stations Pressure Air Temp Water Temp Dewpoint Dewpoint Depression Visibility Wind Speed Wind Dir Waves Ship Positions

Delta Ios

Last reported at 2014-Oct-24 02:14 UTC. Time now 2014-Oct-25 13:27 UTC.
Position N 36°06' W 006°16'.

Length 276 m; draft 9 m.

Type: Tanker. MMSI: 240821000.

Date/timePositionNaut miles runAvg speedWind from/ knotsBaromVisibWave heightAir tempDewpointWater temp
2014-Oct-24 02:14N 36°06' W 006°16'  
2014-Oct-21 09:26N 36°06' W 006°16'  
2014-Oct-19 00:23N 36°06' W 006°16'0 0.0
2014-Oct-18 21:32N 36°06' W 006°16'0 0.0
2014-Oct-18 19:14N 36°06' W 006°16'29 1.1
2014-Oct-17 15:31N 35°58' W 005°41'9 9.4
2014-Oct-17 14:32N 35°60' W 005°30'7 7.3
2014-Oct-17 13:33N 36°04' W 005°22'3 2.5
2014-Oct-17 12:29N 36°06' W 005°24'0 0.0
2014-Oct-17 11:32N 36°06' W 005°24'0 0.0
2014-Oct-17 10:23N 36°06' W 005°24'0 0.0
2014-Oct-17 09:32N 36°06' W 005°24'0 0.1
2014-Oct-17 08:29N 36°06' W 005°24'0 0.2
2014-Oct-17 07:32N 36°06' W 005°24'0 0.0
2014-Oct-17 06:32N 36°06' W 005°24'0 0.0
2014-Oct-17 05:32N 36°06' W 005°24'0 0.2
2014-Oct-17 04:32N 36°06' W 005°24'0 0.2
2014-Oct-17 03:29N 36°06' W 005°24'0 0.1
2014-Oct-17 02:29N 36°06' W 005°24'0 0.0
2014-Oct-17 01:32N 36°06' W 005°24'0 0.0
2014-Oct-17 00:29N 36°06' W 005°24'0 0.0
2014-Oct-16 23:32N 36°06' W 005°24'0 0.1
2014-Oct-16 22:32N 36°06' W 005°24'0 0.0
2014-Oct-16 21:32N 36°06' W 005°24'0 0.1
2014-Oct-16 20:32N 36°06' W 005°24'0 0.0
2014-Oct-16 19:29N 36°06' W 005°24'0 0.2
2014-Oct-16 18:32N 36°06' W 005°24'0 0.2
2014-Oct-16 17:32N 36°06' W 005°24'0 0.1
2014-Oct-16 16:32N 36°06' W 005°24'0 0.4
2014-Oct-16 15:33N 36°06' W 005°24'5 4.8
2014-Oct-16 14:33N 36°04' W 005°19'4 4.4
2014-Oct-16 13:33N 36°00' W 005°22'9 9.2
2014-Oct-16 12:33N 35°57' W 005°32'  

Dump ship's entire track history